sensor_id;sensor_type;location;lat;lon;timestamp;temperature;humidity
64499;SHT31;51087;55.718;21.122;2023-08-21T00:00:30;18.82;99.99
64499;SHT31;51087;55.718;21.122;2023-08-21T00:02:55;18.72;99.99
64499;SHT31;51087;55.718;21.122;2023-08-21T00:05:21;18.66;99.99
64499;SHT31;51087;55.718;21.122;2023-08-21T00:07:46;18.66;99.99
64499;SHT31;51087;55.718;21.122;2023-08-21T00:10:16;18.59;99.99
64499;SHT31;51087;55.718;21.122;2023-08-21T00:12:41;18.56;99.99
64499;SHT31;51087;55.718;21.122;2023-08-21T00:15:07;18.49;99.99
64499;SHT31;51087;55.718;21.122;2023-08-21T00:17:35;18.49;99.99
64499;SHT31;51087;55.718;21.122;2023-08-21T00:20:00;18.52;99.99
64499;SHT31;51087;55.718;21.122;2023-08-21T00:22:25;18.58;99.99
64499;SHT31;51087;55.718;21.122;2023-08-21T00:24:51;18.53;99.99
64499;SHT31;51087;55.718;21.122;2023-08-21T00:27:16;18.49;99.99
64499;SHT31;51087;55.718;21.122;2023-08-21T00:29:42;18.47;99.99
64499;SHT31;51087;55.718;21.122;2023-08-21T00:32:07;18.45;99.99
64499;SHT31;51087;55.718;21.122;2023-08-21T00:34:32;18.41;99.99
64499;SHT31;51087;55.718;21.122;2023-08-21T00:36:58;18.47;99.99
64499;SHT31;51087;55.718;21.122;2023-08-21T00:39:23;18.31;99.99
64499;SHT31;51087;55.718;21.122;2023-08-21T00:41:49;18.34;99.99
64499;SHT31;51087;55.718;21.122;2023-08-21T00:44:14;18.25;99.99
64499;SHT31;51087;55.718;21.122;2023-08-21T00:46:40;18.28;99.99
64499;SHT31;51087;55.718;21.122;2023-08-21T00:49:05;18.27;99.99
64499;SHT31;51087;55.718;21.122;2023-08-21T00:51:31;18.17;99.99
64499;SHT31;51087;55.718;21.122;2023-08-21T00:53:57;18.25;99.99
64499;SHT31;51087;55.718;21.122;2023-08-21T00:56:23;18.28;99.99
64499;SHT31;51087;55.718;21.122;2023-08-21T00:58:49;18.30;99.99
64499;SHT31;51087;55.718;21.122;2023-08-21T01:01:17;18.28;99.99
64499;SHT31;51087;55.718;21.122;2023-08-21T01:03:43;18.31;99.99
64499;SHT31;51087;55.718;21.122;2023-08-21T01:06:09;18.30;99.99
64499;SHT31;51087;55.718;21.122;2023-08-21T01:11:13;18.41;99.99
64499;SHT31;51087;55.718;21.122;2023-08-21T01:16:08;18.30;99.99
64499;SHT31;51087;55.718;21.122;2023-08-21T01:18:34;18.31;99.99
64499;SHT31;51087;55.718;21.122;2023-08-21T01:21:02;18.22;99.99
64499;SHT31;51087;55.718;21.122;2023-08-21T01:23:36;18.20;99.99
64499;SHT31;51087;55.718;21.122;2023-08-21T01:26:02;18.22;99.99
64499;SHT31;51087;55.718;21.122;2023-08-21T01:28:29;18.22;99.99
64499;SHT31;51087;55.718;21.122;2023-08-21T01:31:01;18.27;99.99
64499;SHT31;51087;55.718;21.122;2023-08-21T01:33:29;18.31;99.99
64499;SHT31;51087;55.718;21.122;2023-08-21T01:35:57;18.25;99.99
64499;SHT31;51087;55.718;21.122;2023-08-21T01:38:24;18.30;99.99
64499;SHT31;51087;55.718;21.122;2023-08-21T01:40:49;18.22;99.99
64499;SHT31;51087;55.718;21.122;2023-08-21T01:43:15;18.28;99.99
64499;SHT31;51087;55.718;21.122;2023-08-21T01:45:40;18.35;99.99
64499;SHT31;51087;55.718;21.122;2023-08-21T01:48:06;18.34;99.99
64499;SHT31;51087;55.718;21.122;2023-08-21T01:50:31;18.28;99.99
64499;SHT31;51087;55.718;21.122;2023-08-21T01:52:57;18.32;99.99
64499;SHT31;51087;55.718;21.122;2023-08-21T01:55:22;18.37;99.99
64499;SHT31;51087;55.718;21.122;2023-08-21T01:57:47;18.41;99.99
64499;SHT31;51087;55.718;21.122;2023-08-21T02:00:13;18.42;99.99
64499;SHT31;51087;55.718;21.122;2023-08-21T02:02:39;18.48;99.99
64499;SHT31;51087;55.718;21.122;2023-08-21T02:05:04;18.48;99.99
64499;SHT31;51087;55.718;21.122;2023-08-21T02:07:30;18.52;99.99
64499;SHT31;51087;55.718;21.122;2023-08-21T02:09:55;18.48;99.99
64499;SHT31;51087;55.718;21.122;2023-08-21T02:12:21;18.51;99.99
64499;SHT31;51087;55.718;21.122;2023-08-21T02:14:46;18.55;99.99
64499;SHT31;51087;55.718;21.122;2023-08-21T02:17:12;18.53;99.99
64499;SHT31;51087;55.718;21.122;2023-08-21T02:19:37;18.60;99.99
64499;SHT31;51087;55.718;21.122;2023-08-21T02:22:02;18.59;99.99
64499;SHT31;51087;55.718;21.122;2023-08-21T02:24:28;18.60;99.99
64499;SHT31;51087;55.718;21.122;2023-08-21T02:26:53;18.58;99.99
64499;SHT31;51087;55.718;21.122;2023-08-21T02:29:19;18.58;99.99
64499;SHT31;51087;55.718;21.122;2023-08-21T02:31:44;18.56;99.99
64499;SHT31;51087;55.718;21.122;2023-08-21T02:34:09;18.59;99.99
64499;SHT31;51087;55.718;21.122;2023-08-21T02:36:35;18.60;99.99
64499;SHT31;51087;55.718;21.122;2023-08-21T02:39:01;18.62;99.99
64499;SHT31;51087;55.718;21.122;2023-08-21T02:41:26;18.63;99.99
64499;SHT31;51087;55.718;21.122;2023-08-21T02:43:51;18.65;99.99
64499;SHT31;51087;55.718;21.122;2023-08-21T02:46:17;18.66;99.99
64499;SHT31;51087;55.718;21.122;2023-08-21T02:48:42;18.60;99.99
64499;SHT31;51087;55.718;21.122;2023-08-21T02:51:08;18.59;99.99
64499;SHT31;51087;55.718;21.122;2023-08-21T02:53:33;18.60;99.99
64499;SHT31;51087;55.718;21.122;2023-08-21T02:55:59;18.65;99.99
64499;SHT31;51087;55.718;21.122;2023-08-21T02:58:24;18.66;99.99
64499;SHT31;51087;55.718;21.122;2023-08-21T03:00:49;18.65;99.99
64499;SHT31;51087;55.718;21.122;2023-08-21T03:03:15;18.72;99.99
64499;SHT31;51087;55.718;21.122;2023-08-21T03:05:40;18.73;99.99
64499;SHT31;51087;55.718;21.122;2023-08-21T03:08:05;18.76;99.99
64499;SHT31;51087;55.718;21.122;2023-08-21T03:10:31;18.75;99.99
64499;SHT31;51087;55.718;21.122;2023-08-21T03:12:59;18.80;99.99
64499;SHT31;51087;55.718;21.122;2023-08-21T03:15:24;18.76;99.99
64499;SHT31;51087;55.718;21.122;2023-08-21T03:17:50;18.77;99.99
64499;SHT31;51087;55.718;21.122;2023-08-21T03:20:15;18.76;99.99
64499;SHT31;51087;55.718;21.122;2023-08-21T03:22:42;18.80;99.99
64499;SHT31;51087;55.718;21.122;2023-08-21T03:25:08;18.82;99.99
64499;SHT31;51087;55.718;21.122;2023-08-21T03:27:34;18.86;99.99
64499;SHT31;51087;55.718;21.122;2023-08-21T03:30:04;18.89;99.99
64499;SHT31;51087;55.718;21.122;2023-08-21T03:32:30;18.95;99.99
64499;SHT31;51087;55.718;21.122;2023-08-21T03:34:55;18.95;99.99
64499;SHT31;51087;55.718;21.122;2023-08-21T03:37:21;18.89;99.99
64499;SHT31;51087;55.718;21.122;2023-08-21T03:39:47;18.90;99.99
64499;SHT31;51087;55.718;21.122;2023-08-21T03:42:12;18.92;99.99
64499;SHT31;51087;55.718;21.122;2023-08-21T03:44:39;18.92;99.99
64499;SHT31;51087;55.718;21.122;2023-08-21T03:47:04;18.97;99.99
64499;SHT31;51087;55.718;21.122;2023-08-21T03:49:29;19.03;99.99
64499;SHT31;51087;55.718;21.122;2023-08-21T03:51:55;18.99;99.99
64499;SHT31;51087;55.718;21.122;2023-08-21T03:54:20;19.00;99.99
64499;SHT31;51087;55.718;21.122;2023-08-21T03:56:46;19.00;99.99
64499;SHT31;51087;55.718;21.122;2023-08-21T03:59:11;19.00;99.99
64499;SHT31;51087;55.718;21.122;2023-08-21T04:01:36;19.00;99.99
64499;SHT31;51087;55.718;21.122;2023-08-21T04:04:02;18.99;99.99
64499;SHT31;51087;55.718;21.122;2023-08-21T04:06:27;18.97;99.99
64499;SHT31;51087;55.718;21.122;2023-08-21T04:08:53;18.95;99.99
64499;SHT31;51087;55.718;21.122;2023-08-21T04:11:18;18.90;99.99
64499;SHT31;51087;55.718;21.122;2023-08-21T04:13:44;18.87;99.99
64499;SHT31;51087;55.718;21.122;2023-08-21T04:16:09;18.87;99.99
64499;SHT31;51087;55.718;21.122;2023-08-21T04:18:35;18.85;99.99
64499;SHT31;51087;55.718;21.122;2023-08-21T04:21:02;18.83;99.99
64499;SHT31;51087;55.718;21.122;2023-08-21T04:23:27;18.87;99.99
64499;SHT31;51087;55.718;21.122;2023-08-21T04:25:53;18.90;99.99
64499;SHT31;51087;55.718;21.122;2023-08-21T04:28:18;18.90;99.99
64499;SHT31;51087;55.718;21.122;2023-08-21T04:30:43;18.99;99.99
64499;SHT31;51087;55.718;21.122;2023-08-21T04:33:09;19.03;99.99
64499;SHT31;51087;55.718;21.122;2023-08-21T04:35:38;18.97;99.99
64499;SHT31;51087;55.718;21.122;2023-08-21T04:38:04;19.00;99.99
64499;SHT31;51087;55.718;21.122;2023-08-21T04:40:29;19.03;99.99
64499;SHT31;51087;55.718;21.122;2023-08-21T04:42:54;19.07;99.99
64499;SHT31;51087;55.718;21.122;2023-08-21T04:45:20;19.14;99.99
64499;SHT31;51087;55.718;21.122;2023-08-21T04:47:45;19.17;99.99
64499;SHT31;51087;55.718;21.122;2023-08-21T04:50:12;19.16;99.99
64499;SHT31;51087;55.718;21.122;2023-08-21T04:52:37;19.13;99.99
64499;SHT31;51087;55.718;21.122;2023-08-21T04:55:03;19.13;99.99
64499;SHT31;51087;55.718;21.122;2023-08-21T04:57:28;19.07;99.99
64499;SHT31;51087;55.718;21.122;2023-08-21T04:59:54;19.07;99.99
64499;SHT31;51087;55.718;21.122;2023-08-21T05:02:19;19.04;99.99
64499;SHT31;51087;55.718;21.122;2023-08-21T05:04:44;19.07;99.99
64499;SHT31;51087;55.718;21.122;2023-08-21T05:07:10;19.13;99.99
64499;SHT31;51087;55.718;21.122;2023-08-21T05:09:35;19.17;99.99
64499;SHT31;51087;55.718;21.122;2023-08-21T05:12:00;19.27;99.99
64499;SHT31;51087;55.718;21.122;2023-08-21T05:14:26;19.28;99.99
64499;SHT31;51087;55.718;21.122;2023-08-21T05:16:51;19.35;99.99
64499;SHT31;51087;55.718;21.122;2023-08-21T05:19:17;19.41;99.99
64499;SHT31;51087;55.718;21.122;2023-08-21T05:21:44;19.45;99.95
64499;SHT31;51087;55.718;21.122;2023-08-21T05:24:09;19.57;99.51
64499;SHT31;51087;55.718;21.122;2023-08-21T05:26:35;19.55;99.08
64499;SHT31;51087;55.718;21.122;2023-08-21T05:29:01;19.63;98.95
64499;SHT31;51087;55.718;21.122;2023-08-21T05:31:26;19.63;98.73
64499;SHT31;51087;55.718;21.122;2023-08-21T05:33:52;19.72;98.31
64499;SHT31;51087;55.718;21.122;2023-08-21T05:36:17;19.72;97.62
64499;SHT31;51087;55.718;21.122;2023-08-21T05:38:44;19.81;97.49
64499;SHT31;51087;55.718;21.122;2023-08-21T05:41:11;19.73;97.62
64499;SHT31;51087;55.718;21.122;2023-08-21T05:43:37;19.81;97.25
64499;SHT31;51087;55.718;21.122;2023-08-21T05:46:02;19.86;96.99
64499;SHT31;51087;55.718;21.122;2023-08-21T05:48:30;19.82;96.88
64499;SHT31;51087;55.718;21.122;2023-08-21T05:50:55;19.89;96.44
64499;SHT31;51087;55.718;21.122;2023-08-21T05:53:22;19.96;96.39
64499;SHT31;51087;55.718;21.122;2023-08-21T05:55:47;19.89;96.61
64499;SHT31;51087;55.718;21.122;2023-08-21T05:58:13;19.85;96.80
64499;SHT31;51087;55.718;21.122;2023-08-21T06:00:38;19.89;96.57
64499;SHT31;51087;55.718;21.122;2023-08-21T06:03:04;19.94;96.06
64499;SHT31;51087;55.718;21.122;2023-08-21T06:05:30;19.82;95.29
64499;SHT31;51087;55.718;21.122;2023-08-21T06:07:55;19.76;94.84
64499;SHT31;51087;55.718;21.122;2023-08-21T06:10:21;19.78;95.44
64499;SHT31;51087;55.718;21.122;2023-08-21T06:12:46;19.79;95.46
64499;SHT31;51087;55.718;21.122;2023-08-21T06:15:13;19.89;95.77
64499;SHT31;51087;55.718;21.122;2023-08-21T06:17:39;19.75;96.13
64499;SHT31;51087;55.718;21.122;2023-08-21T06:20:05;19.85;96.23
64499;SHT31;51087;55.718;21.122;2023-08-21T06:22:33;19.69;97.58
64499;SHT31;51087;55.718;21.122;2023-08-21T06:24:59;19.72;98.07
64499;SHT31;51087;55.718;21.122;2023-08-21T06:27:24;19.79;98.00
64499;SHT31;51087;55.718;21.122;2023-08-21T06:29:49;19.83;97.91
64499;SHT31;51087;55.718;21.122;2023-08-21T06:32:15;20.07;97.61
64499;SHT31;51087;55.718;21.122;2023-08-21T06:34:40;20.18;96.93
64499;SHT31;51087;55.718;21.122;2023-08-21T06:37:06;20.20;96.67
64499;SHT31;51087;55.718;21.122;2023-08-21T06:39:32;20.28;95.32
64499;SHT31;51087;55.718;21.122;2023-08-21T06:41:57;20.31;95.42
64499;SHT31;51087;55.718;21.122;2023-08-21T06:44:23;20.36;95.81
64499;SHT31;51087;55.718;21.122;2023-08-21T06:46:48;20.57;95.93
64499;SHT31;51087;55.718;21.122;2023-08-21T06:49:14;20.67;95.51
64499;SHT31;51087;55.718;21.122;2023-08-21T06:51:39;20.63;95.15
64499;SHT31;51087;55.718;21.122;2023-08-21T06:54:04;20.48;95.64
64499;SHT31;51087;55.718;21.122;2023-08-21T06:56:30;20.61;95.19
64499;SHT31;51087;55.718;21.122;2023-08-21T06:58:55;20.44;95.69
64499;SHT31;51087;55.718;21.122;2023-08-21T07:01:21;20.48;95.71
64499;SHT31;51087;55.718;21.122;2023-08-21T07:03:47;20.64;95.63
64499;SHT31;51087;55.718;21.122;2023-08-21T07:06:12;20.68;95.24
64499;SHT31;51087;55.718;21.122;2023-08-21T07:08:38;20.65;94.88
64499;SHT31;51087;55.718;21.122;2023-08-21T07:11:05;20.63;95.40
64499;SHT31;51087;55.718;21.122;2023-08-21T07:13:33;20.93;94.99
64499;SHT31;51087;55.718;21.122;2023-08-21T07:15:58;21.23;93.97
64499;SHT31;51087;55.718;21.122;2023-08-21T07:18:27;21.33;93.28
64499;SHT31;51087;55.718;21.122;2023-08-21T07:20:52;21.12;93.69
64499;SHT31;51087;55.718;21.122;2023-08-21T07:23:18;21.06;94.22
64499;SHT31;51087;55.718;21.122;2023-08-21T07:25:45;20.95;94.29
64499;SHT31;51087;55.718;21.122;2023-08-21T07:28:11;20.95;94.18
64499;SHT31;51087;55.718;21.122;2023-08-21T07:30:37;21.10;93.90
64499;SHT31;51087;55.718;21.122;2023-08-21T07:33:04;21.09;93.87
64499;SHT31;51087;55.718;21.122;2023-08-21T07:35:31;21.12;94.12
64499;SHT31;51087;55.718;21.122;2023-08-21T07:37:56;21.04;93.55
64499;SHT31;51087;55.718;21.122;2023-08-21T07:40:24;21.14;92.86
64499;SHT31;51087;55.718;21.122;2023-08-21T07:42:50;21.24;92.58
64499;SHT31;51087;55.718;21.122;2023-08-21T07:45:16;20.99;93.88
64499;SHT31;51087;55.718;21.122;2023-08-21T07:47:42;20.91;93.81
64499;SHT31;51087;55.718;21.122;2023-08-21T07:50:09;21.00;93.17
64499;SHT31;51087;55.718;21.122;2023-08-21T07:52:35;21.03;93.25
64499;SHT31;51087;55.718;21.122;2023-08-21T07:55:01;21.07;93.08
64499;SHT31;51087;55.718;21.122;2023-08-21T07:57:31;21.24;92.82
64499;SHT31;51087;55.718;21.122;2023-08-21T07:59:56;21.55;92.30
64499;SHT31;51087;55.718;21.122;2023-08-21T08:02:23;21.48;91.68
64499;SHT31;51087;55.718;21.122;2023-08-21T08:04:48;21.41;91.49
64499;SHT31;51087;55.718;21.122;2023-08-21T08:07:14;21.34;91.89
64499;SHT31;51087;55.718;21.122;2023-08-21T08:09:39;21.36;92.38
64499;SHT31;51087;55.718;21.122;2023-08-21T08:12:05;21.34;92.00
64499;SHT31;51087;55.718;21.122;2023-08-21T08:14:32;21.31;91.51
64499;SHT31;51087;55.718;21.122;2023-08-21T08:16:57;21.55;91.61
64499;SHT31;51087;55.718;21.122;2023-08-21T08:19:28;21.53;91.79
64499;SHT31;51087;55.718;21.122;2023-08-21T08:21:53;21.41;91.65
64499;SHT31;51087;55.718;21.122;2023-08-21T08:24:19;21.30;92.26
64499;SHT31;51087;55.718;21.122;2023-08-21T08:26:44;21.33;92.12
64499;SHT31;51087;55.718;21.122;2023-08-21T08:29:10;21.73;91.60
64499;SHT31;51087;55.718;21.122;2023-08-21T08:31:36;21.79;90.99
64499;SHT31;51087;55.718;21.122;2023-08-21T08:34:04;21.82;91.46
64499;SHT31;51087;55.718;21.122;2023-08-21T08:36:29;21.88;91.23
64499;SHT31;51087;55.718;21.122;2023-08-21T08:38:55;21.69;90.58
64499;SHT31;51087;55.718;21.122;2023-08-21T08:41:33;21.82;89.66
64499;SHT31;51087;55.718;21.122;2023-08-21T08:44:03;21.73;89.88
64499;SHT31;51087;55.718;21.122;2023-08-21T08:46:29;21.51;90.98
64499;SHT31;51087;55.718;21.122;2023-08-21T08:48:56;21.29;92.82
64499;SHT31;51087;55.718;21.122;2023-08-21T08:51:24;21.65;91.27
64499;SHT31;51087;55.718;21.122;2023-08-21T08:53:50;21.62;90.81
64499;SHT31;51087;55.718;21.122;2023-08-21T08:56:16;21.74;90.31
64499;SHT31;51087;55.718;21.122;2023-08-21T08:58:41;21.62;90.48
64499;SHT31;51087;55.718;21.122;2023-08-21T09:01:08;21.41;90.45
64499;SHT31;51087;55.718;21.122;2023-08-21T09:03:36;21.26;91.38
64499;SHT31;51087;55.718;21.122;2023-08-21T09:06:01;21.44;90.49
64499;SHT31;51087;55.718;21.122;2023-08-21T09:08:26;21.44;91.15
64499;SHT31;51087;55.718;21.122;2023-08-21T09:10:53;21.00;91.58
64499;SHT31;51087;55.718;21.122;2023-08-21T09:13:19;21.54;90.55
64499;SHT31;51087;55.718;21.122;2023-08-21T09:15:47;21.34;91.31
64499;SHT31;51087;55.718;21.122;2023-08-21T09:18:14;21.68;90.49
64499;SHT31;51087;55.718;21.122;2023-08-21T09:20:42;22.23;88.77
64499;SHT31;51087;55.718;21.122;2023-08-21T09:23:08;21.95;88.73
64499;SHT31;51087;55.718;21.122;2023-08-21T09:25:38;21.77;88.60
64499;SHT31;51087;55.718;21.122;2023-08-21T09:28:08;22.13;88.05
64499;SHT31;51087;55.718;21.122;2023-08-21T09:30:46;22.17;87.20
64499;SHT31;51087;55.718;21.122;2023-08-21T09:33:12;22.03;88.56
64499;SHT31;51087;55.718;21.122;2023-08-21T09:35:38;22.09;88.01
64499;SHT31;51087;55.718;21.122;2023-08-21T09:38:04;22.23;87.30
64499;SHT31;51087;55.718;21.122;2023-08-21T09:40:30;21.95;88.71
64499;SHT31;51087;55.718;21.122;2023-08-21T09:42:56;22.01;88.90
64499;SHT31;51087;55.718;21.122;2023-08-21T09:45:22;21.92;88.38
64499;SHT31;51087;55.718;21.122;2023-08-21T09:47:49;22.02;88.84
64499;SHT31;51087;55.718;21.122;2023-08-21T09:50:15;22.50;87.37
64499;SHT31;51087;55.718;21.122;2023-08-21T09:52:43;22.33;87.12
64499;SHT31;51087;55.718;21.122;2023-08-21T09:55:10;21.91;88.29
64499;SHT31;51087;55.718;21.122;2023-08-21T09:57:36;21.58;89.73
64499;SHT31;51087;55.718;21.122;2023-08-21T10:00:03;21.55;90.27
64499;SHT31;51087;55.718;21.122;2023-08-21T10:02:42;21.95;88.85
64499;SHT31;51087;55.718;21.122;2023-08-21T10:05:11;21.92;88.69
64499;SHT31;51087;55.718;21.122;2023-08-21T10:07:38;22.43;87.43
64499;SHT31;51087;55.718;21.122;2023-08-21T10:10:04;22.85;85.06
64499;SHT31;51087;55.718;21.122;2023-08-21T10:12:30;21.98;87.05
64499;SHT31;51087;55.718;21.122;2023-08-21T10:14:55;21.64;88.50
64499;SHT31;51087;55.718;21.122;2023-08-21T10:17:21;21.41;90.11
64499;SHT31;51087;55.718;21.122;2023-08-21T10:19:52;23.14;85.25
64499;SHT31;51087;55.718;21.122;2023-08-21T10:22:46;22.88;84.60
64499;SHT31;51087;55.718;21.122;2023-08-21T10:25:17;23.52;82.34
64499;SHT31;51087;55.718;21.122;2023-08-21T10:27:45;23.22;81.91
64499;SHT31;51087;55.718;21.122;2023-08-21T10:30:15;23.60;81.93
64499;SHT31;51087;55.718;21.122;2023-08-21T10:32:46;22.97;82.28
64499;SHT31;51087;55.718;21.122;2023-08-21T10:35:31;23.22;83.32
64499;SHT31;51087;55.718;21.122;2023-08-21T10:38:16;21.77;87.01
64499;SHT31;51087;55.718;21.122;2023-08-21T10:41:05;21.92;87.78
64499;SHT31;51087;55.718;21.122;2023-08-21T10:43:46;22.71;86.74
64499;SHT31;51087;55.718;21.122;2023-08-21T10:46:12;22.19;86.20
64499;SHT31;51087;55.718;21.122;2023-08-21T10:48:39;22.79;85.20
64499;SHT31;51087;55.718;21.122;2023-08-21T10:51:06;22.85;84.73
64499;SHT31;51087;55.718;21.122;2023-08-21T10:53:38;21.65;87.71
64499;SHT31;51087;55.718;21.122;2023-08-21T10:56:05;21.94;87.44
64499;SHT31;51087;55.718;21.122;2023-08-21T10:58:38;23.23;83.74
64499;SHT31;51087;55.718;21.122;2023-08-21T11:01:03;24.33;79.31
64499;SHT31;51087;55.718;21.122;2023-08-21T11:03:29;23.54;81.81
64499;SHT31;51087;55.718;21.122;2023-08-21T11:06:10;23.22;81.92
64499;SHT31;51087;55.718;21.122;2023-08-21T11:09:27;22.85;84.55
64499;SHT31;51087;55.718;21.122;2023-08-21T11:11:52;21.82;87.10
64499;SHT31;51087;55.718;21.122;2023-08-21T11:14:25;21.96;86.91
64499;SHT31;51087;55.718;21.122;2023-08-21T11:16:51;21.41;88.43
64499;SHT31;51087;55.718;21.122;2023-08-21T11:19:16;21.06;89.83
64499;SHT31;51087;55.718;21.122;2023-08-21T11:21:42;20.52;91.94
64499;SHT31;51087;55.718;21.122;2023-08-21T11:24:08;20.24;93.18
64499;SHT31;51087;55.718;21.122;2023-08-21T11:26:34;20.20;93.53
64499;SHT31;51087;55.718;21.122;2023-08-21T11:28:59;20.20;93.86
64499;SHT31;51087;55.718;21.122;2023-08-21T11:31:27;20.20;93.68
64499;SHT31;51087;55.718;21.122;2023-08-21T11:33:53;20.41;93.40
64499;SHT31;51087;55.718;21.122;2023-08-21T11:36:18;20.55;92.03
64499;SHT31;51087;55.718;21.122;2023-08-21T11:38:58;20.75;91.02
64499;SHT31;51087;55.718;21.122;2023-08-21T11:41:25;21.04;89.79
64499;SHT31;51087;55.718;21.122;2023-08-21T11:43:51;21.33;87.83
64499;SHT31;51087;55.718;21.122;2023-08-21T11:46:18;20.96;88.50
64499;SHT31;51087;55.718;21.122;2023-08-21T11:48:44;20.98;88.31
64499;SHT31;51087;55.718;21.122;2023-08-21T11:51:10;20.58;89.71
64499;SHT31;51087;55.718;21.122;2023-08-21T11:53:41;20.68;89.75
64499;SHT31;51087;55.718;21.122;2023-08-21T11:56:12;20.43;90.79
64499;SHT31;51087;55.718;21.122;2023-08-21T11:58:42;20.18;91.91
64499;SHT31;51087;55.718;21.122;2023-08-21T12:01:07;20.06;92.40
64499;SHT31;51087;55.718;21.122;2023-08-21T12:03:37;19.83;93.27
64499;SHT31;51087;55.718;21.122;2023-08-21T12:06:11;19.78;93.95
64499;SHT31;51087;55.718;21.122;2023-08-21T12:08:39;19.58;94.46
64499;SHT31;51087;55.718;21.122;2023-08-21T12:11:05;20.00;93.18
64499;SHT31;51087;55.718;21.122;2023-08-21T12:13:31;19.65;93.19
64499;SHT31;51087;55.718;21.122;2023-08-21T12:15:56;19.85;93.24
64499;SHT31;51087;55.718;21.122;2023-08-21T12:18:23;19.59;93.75
64499;SHT31;51087;55.718;21.122;2023-08-21T12:20:49;19.58;94.10
64499;SHT31;51087;55.718;21.122;2023-08-21T12:23:14;19.73;93.76
64499;SHT31;51087;55.718;21.122;2023-08-21T12:25:40;19.92;92.77
64499;SHT31;51087;55.718;21.122;2023-08-21T12:28:07;19.85;92.59
64499;SHT31;51087;55.718;21.122;2023-08-21T12:30:33;19.96;91.92
64499;SHT31;51087;55.718;21.122;2023-08-21T12:32:59;20.09;91.10
64499;SHT31;51087;55.718;21.122;2023-08-21T12:35:24;20.26;90.22
64499;SHT31;51087;55.718;21.122;2023-08-21T12:37:50;20.21;89.80
64499;SHT31;51087;55.718;21.122;2023-08-21T12:40:15;20.14;90.40
64499;SHT31;51087;55.718;21.122;2023-08-21T12:42:40;20.28;89.82
64499;SHT31;51087;55.718;21.122;2023-08-21T12:45:06;20.75;88.95
64499;SHT31;51087;55.718;21.122;2023-08-21T12:47:32;20.59;89.83
64499;SHT31;51087;55.718;21.122;2023-08-21T12:49:58;20.68;89.75
64499;SHT31;51087;55.718;21.122;2023-08-21T12:52:24;20.61;89.68
64499;SHT31;51087;55.718;21.122;2023-08-21T12:54:49;20.55;89.85
64499;SHT31;51087;55.718;21.122;2023-08-21T12:57:14;20.65;89.15
64499;SHT31;51087;55.718;21.122;2023-08-21T12:59:42;20.83;89.31
64499;SHT31;51087;55.718;21.122;2023-08-21T13:02:08;20.89;88.72
64499;SHT31;51087;55.718;21.122;2023-08-21T13:04:33;20.58;89.37
64499;SHT31;51087;55.718;21.122;2023-08-21T13:06:59;20.67;89.64
64499;SHT31;51087;55.718;21.122;2023-08-21T13:09:25;20.49;89.71
64499;SHT31;51087;55.718;21.122;2023-08-21T13:11:51;20.34;90.50
64499;SHT31;51087;55.718;21.122;2023-08-21T13:14:16;20.51;89.78
64499;SHT31;51087;55.718;21.122;2023-08-21T13:16:42;20.37;89.96
64499;SHT31;51087;55.718;21.122;2023-08-21T13:19:07;20.37;89.97
64499;SHT31;51087;55.718;21.122;2023-08-21T13:21:33;20.14;89.83
64499;SHT31;51087;55.718;21.122;2023-08-21T13:23:58;20.10;89.91
64499;SHT31;51087;55.718;21.122;2023-08-21T13:26:23;21.41;85.90
64499;SHT31;51087;55.718;21.122;2023-08-21T13:28:50;21.86;84.19
64499;SHT31;51087;55.718;21.122;2023-08-21T13:31:16;21.43;84.99
64499;SHT31;51087;55.718;21.122;2023-08-21T13:33:49;20.86;86.19
64499;SHT31;51087;55.718;21.122;2023-08-21T13:36:15;20.67;86.65
64499;SHT31;51087;55.718;21.122;2023-08-21T13:38:42;20.45;87.22
64499;SHT31;51087;55.718;21.122;2023-08-21T13:41:07;20.28;88.20
64499;SHT31;51087;55.718;21.122;2023-08-21T13:43:34;20.63;87.84
64499;SHT31;51087;55.718;21.122;2023-08-21T13:46:02;20.51;88.16
64499;SHT31;51087;55.718;21.122;2023-08-21T13:48:31;20.33;88.48
64499;SHT31;51087;55.718;21.122;2023-08-21T13:50:56;20.16;88.67
64499;SHT31;51087;55.718;21.122;2023-08-21T13:53:22;20.06;89.74
64499;SHT31;51087;55.718;21.122;2023-08-21T13:55:47;20.03;90.23
64499;SHT31;51087;55.718;21.122;2023-08-21T13:58:13;20.09;89.89
64499;SHT31;51087;55.718;21.122;2023-08-21T14:00:39;20.89;87.28
64499;SHT31;51087;55.718;21.122;2023-08-21T14:03:04;21.59;85.37
64499;SHT31;51087;55.718;21.122;2023-08-21T14:05:29;21.46;84.69
64499;SHT31;51087;55.718;21.122;2023-08-21T14:07:57;22.02;83.58
64499;SHT31;51087;55.718;21.122;2023-08-21T14:10:22;21.43;84.98
64499;SHT31;51087;55.718;21.122;2023-08-21T14:12:47;21.36;85.85
64499;SHT31;51087;55.718;21.122;2023-08-21T14:15:13;21.14;86.73
64499;SHT31;51087;55.718;21.122;2023-08-21T14:17:38;20.98;86.90
64499;SHT31;51087;55.718;21.122;2023-08-21T14:20:04;20.89;86.30
64499;SHT31;51087;55.718;21.122;2023-08-21T14:22:32;20.85;86.10
64499;SHT31;51087;55.718;21.122;2023-08-21T14:24:57;20.72;86.97
64499;SHT31;51087;55.718;21.122;2023-08-21T14:27:23;20.89;86.21
64499;SHT31;51087;55.718;21.122;2023-08-21T14:29:48;20.89;85.84
64499;SHT31;51087;55.718;21.122;2023-08-21T14:32:14;21.12;85.27
64499;SHT31;51087;55.718;21.122;2023-08-21T14:34:40;21.24;84.37
64499;SHT31;51087;55.718;21.122;2023-08-21T14:37:05;21.19;83.52
64499;SHT31;51087;55.718;21.122;2023-08-21T14:39:31;21.22;83.88
64499;SHT31;51087;55.718;21.122;2023-08-21T14:41:57;21.06;84.60
64499;SHT31;51087;55.718;21.122;2023-08-21T14:44:23;21.06;84.45
64499;SHT31;51087;55.718;21.122;2023-08-21T14:46:49;21.22;84.27
64499;SHT31;51087;55.718;21.122;2023-08-21T14:49:15;20.99;85.16
64499;SHT31;51087;55.718;21.122;2023-08-21T14:51:40;20.38;86.99
64499;SHT31;51087;55.718;21.122;2023-08-21T14:54:06;20.00;89.20
64499;SHT31;51087;55.718;21.122;2023-08-21T14:56:32;20.20;89.12
64499;SHT31;51087;55.718;21.122;2023-08-21T14:58:58;20.18;89.33
64499;SHT31;51087;55.718;21.122;2023-08-21T15:01:24;19.99;89.96
64499;SHT31;51087;55.718;21.122;2023-08-21T15:03:49;19.89;90.11
64499;SHT31;51087;55.718;21.122;2023-08-21T15:06:14;20.03;89.54
64499;SHT31;51087;55.718;21.122;2023-08-21T15:08:41;20.06;89.91
64499;SHT31;51087;55.718;21.122;2023-08-21T15:11:08;20.14;89.25
64499;SHT31;51087;55.718;21.122;2023-08-21T15:13:35;20.30;89.49
64499;SHT31;51087;55.718;21.122;2023-08-21T15:16:00;20.06;89.33